Time;durP1;ratioP1;P1;durP2;ratioP2;P2;SDS_P1;SDS_P2;PMS_P1;PMS_P2;Temp;Humidity;BMP_temperature;BMP_pressure;BME280_temperature;BME280_humidity;BME280_pressure;Samples;Min_cycle;Max_cycle;Signal;HPM_P1;HPM_P2
2021/09/13 00:01:57;;;;;;;7.93;3.00;;;;;;;;;;5050789;28;20017;-77
2021/09/13 00:04:22;;;;;;;5.80;2.65;;;;;;;;;;5069951;28;20013;-74
2021/09/13 00:06:48;;;;;;;4.38;2.70;;;;;;;;;;5071409;28;20164;-74
2021/09/13 00:09:13;;;;;;;3.45;2.45;;;;;;;;;;5054830;28;20033;-75
2021/09/13 00:11:39;;;;;;;4.35;2.70;;;;;;;;;;5067873;28;20036;-74
2021/09/13 00:14:04;;;;;;;4.10;2.58;;;;;;;;;;5071536;28;20098;-76
2021/09/13 00:16:29;;;;;;;5.57;2.63;;;;;;;;;;5062577;28;20048;-72
2021/09/13 00:18:55;;;;;;;5.72;2.85;;;;;;;;;;5063907;28;20031;-73
2021/09/13 00:21:20;;;;;;;5.50;2.40;;;;;;;;;;5056156;28;20024;-73
2021/09/13 00:23:46;;;;;;;4.57;2.53;;;;;;;;;;5077969;28;20115;-72
2021/09/13 00:26:11;;;;;;;5.65;3.08;;;;;;;;;;5055974;28;20417;-75
2021/09/13 00:28:37;;;;;;;5.03;2.53;;;;;;;;;;5060779;28;20376;-72
2021/09/13 00:31:02;;;;;;;5.10;2.38;;;;;;;;;;5063954;28;20023;-75
2021/09/13 00:33:28;;;;;;;3.60;2.45;;;;;;;;;;5050161;28;20013;-72
2021/09/13 00:35:53;;;;;;;5.22;2.20;;;;;;;;;;5050157;28;20021;-73
2021/09/13 00:38:19;;;;;;;3.92;2.17;;;;;;;;;;5064797;28;20029;-74
2021/09/13 00:40:45;;;;;;;7.85;2.78;;;;;;;;;;5061424;28;20024;-72
2021/09/13 00:43:11;;;;;;;5.25;2.30;;;;;;;;;;5067055;28;20501;-73
2021/09/13 00:45:37;;;;;;;5.85;2.50;;;;;;;;;;5060153;28;20479;-73
2021/09/13 00:48:02;;;;;;;5.65;2.45;;;;;;;;;;5054662;28;20104;-71
2021/09/13 00:50:28;;;;;;;6.68;2.60;;;;;;;;;;5049812;28;20108;-73
2021/09/13 00:52:55;;;;;;;4.72;2.67;;;;;;;;;;5053878;28;20388;-73
2021/09/13 00:55:22;;;;;;;4.57;2.50;;;;;;;;;;5063918;28;20021;-73
2021/09/13 00:57:49;;;;;;;4.75;2.40;;;;;;;;;;5073000;28;20472;-72
2021/09/13 01:00:15;;;;;;;5.05;2.42;;;;;;;;;;5077291;28;20051;-72
2021/09/13 01:02:41;;;;;;;4.57;2.55;;;;;;;;;;5068571;28;20025;-71
2021/09/13 01:05:07;;;;;;;4.00;2.40;;;;;;;;;;5053590;28;20064;-72
2021/09/13 01:07:33;;;;;;;3.38;2.33;;;;;;;;;;5075199;28;20036;-71
2021/09/13 01:09:59;;;;;;;5.63;2.35;;;;;;;;;;5063358;28;20024;-72
2021/09/13 01:12:25;;;;;;;4.93;2.20;;;;;;;;;;5073015;28;20520;-75
2021/09/13 01:14:51;;;;;;;4.50;2.22;;;;;;;;;;5084756;28;20067;-73
2021/09/13 01:17:17;;;;;;;4.80;2.53;;;;;;;;;;5079717;28;20059;-72
2021/09/13 01:19:42;;;;;;;7.15;2.80;;;;;;;;;;5072954;28;20016;-75
2021/09/13 01:22:10;;;;;;;5.57;2.22;;;;;;;;;;5043330;28;20369;-72
2021/09/13 01:24:36;;;;;;;6.60;2.80;;;;;;;;;;5070005;28;20472;-73
2021/09/13 01:27:08;;;;;;;5.68;2.42;;;;;;;;;;5063091;28;20112;-73
2021/09/13 01:29:34;;;;;;;5.45;2.25;;;;;;;;;;5055652;28;20547;-72
2021/09/13 01:32:01;;;;;;;3.90;2.33;;;;;;;;;;5083836;28;20129;-74
2021/09/13 01:34:27;;;;;;;3.35;2.28;;;;;;;;;;5053663;28;20029;-72
2021/09/13 01:36:53;;;;;;;5.88;2.40;;;;;;;;;;5065590;28;20380;-73
2021/09/13 01:39:19;;;;;;;4.28;2.30;;;;;;;;;;5066200;28;20147;-74
2021/09/13 01:41:46;;;;;;;4.40;2.58;;;;;;;;;;5057843;28;20039;-75
2021/09/13 01:44:13;;;;;;;4.90;2.40;;;;;;;;;;5054844;28;20495;-75
2021/09/13 01:46:40;;;;;;;6.05;2.35;;;;;;;;;;5073936;28;20025;-72
2021/09/13 01:49:07;;;;;;;5.07;2.60;;;;;;;;;;5035193;28;20067;-71
2021/09/13 01:51:33;;;;;;;6.13;2.90;;;;;;;;;;5067577;28;20028;-74
2021/09/13 01:53:59;;;;;;;3.72;2.17;;;;;;;;;;5052520;28;20019;-72
2021/09/13 01:56:25;;;;;;;6.55;2.78;;;;;;;;;;5052372;28;20171;-72
2021/09/13 01:58:51;;;;;;;6.50;3.13;;;;;;;;;;5066183;28;20119;-73
2021/09/13 02:01:18;;;;;;;5.15;2.40;;;;;;;;;;5060476;28;20082;-74
2021/09/13 02:03:44;;;;;;;4.28;2.30;;;;;;;;;;5061190;28;20033;-71
2021/09/13 02:06:09;;;;;;;5.90;2.17;;;;;;;;;;5074255;28;20027;-72
2021/09/13 02:08:35;;;;;;;5.13;2.38;;;;;;;;;;5079784;28;20115;-73
2021/09/13 02:11:01;;;;;;;3.75;2.35;;;;;;;;;;5072180;28;20016;-75
2021/09/13 02:13:26;;;;;;;3.97;2.63;;;;;;;;;;5043874;28;20040;-71
2021/09/13 02:15:52;;;;;;;3.72;2.08;;;;;;;;;;5068307;28;20035;-72
2021/09/13 02:18:17;;;;;;;4.05;2.20;;;;;;;;;;5075415;28;20048;-72
2021/09/13 02:20:43;;;;;;;4.43;2.50;;;;;;;;;;5059203;28;20090;-72
2021/09/13 02:23:08;;;;;;;4.88;2.45;;;;;;;;;;5057434;28;20041;-72
2021/09/13 02:25:34;;;;;;;6.30;2.60;;;;;;;;;;5059635;28;20060;-71
2021/09/13 02:27:59;;;;;;;4.97;2.30;;;;;;;;;;5072575;28;20167;-72
2021/09/13 02:30:25;;;;;;;4.40;2.25;;;;;;;;;;5061839;28;20039;-74
2021/09/13 02:32:50;;;;;;;5.95;2.35;;;;;;;;;;5055605;28;20073;-72
2021/09/13 02:35:16;;;;;;;4.22;2.30;;;;;;;;;;5061422;28;20024;-73
2021/09/13 02:37:41;;;;;;;4.43;2.53;;;;;;;;;;5065563;28;20031;-70
2021/09/13 02:40:07;;;;;;;6.07;2.63;;;;;;;;;;5067516;28;20086;-73
2021/09/13 02:42:33;;;;;;;4.80;2.28;;;;;;;;;;5071507;28;20036;-71
2021/09/13 02:44:59;;;;;;;3.45;2.10;;;;;;;;;;5082777;28;20025;-71
2021/09/13 02:47:25;;;;;;;3.55;2.58;;;;;;;;;;5061725;28;20475;-72
2021/09/13 02:49:51;;;;;;;4.45;2.42;;;;;;;;;;5058796;28;20524;-73
2021/09/13 02:52:17;;;;;;;4.95;2.83;;;;;;;;;;5059482;28;20062;-71
2021/09/13 02:54:42;;;;;;;5.43;2.53;;;;;;;;;;5061167;28;20048;-72
2021/09/13 02:57:08;;;;;;;5.25;2.70;;;;;;;;;;5067141;28;20476;-71
2021/09/13 02:59:33;;;;;;;4.10;2.13;;;;;;;;;;5054424;28;20040;-71
2021/09/13 03:01:59;;;;;;;4.90;2.80;;;;;;;;;;5084210;28;20589;-71
2021/09/13 03:04:24;;;;;;;5.57;2.53;;;;;;;;;;5075795;28;20032;-74
2021/09/13 03:06:52;;;;;;;4.32;2.80;;;;;;;;;;5079142;28;20063;-72
2021/09/13 03:09:19;;;;;;;5.25;2.78;;;;;;;;;;5026595;28;20094;-72
2021/09/13 03:11:45;;;;;;;7.35;2.53;;;;;;;;;;5055160;28;20036;-71
2021/09/13 03:14:10;;;;;;;5.03;2.67;;;;;;;;;;5053349;28;20103;-73
2021/09/13 03:16:36;;;;;;;4.18;2.30;;;;;;;;;;5062514;28;20049;-73
2021/09/13 03:19:02;;;;;;;6.57;2.80;;;;;;;;;;5064418;28;20055;-72
2021/09/13 03:21:27;;;;;;;4.63;2.80;;;;;;;;;;5057147;28;20032;-72
2021/09/13 03:23:53;;;;;;;9.05;3.00;;;;;;;;;;5069986;28;20040;-73
2021/09/13 03:26:19;;;;;;;5.97;3.58;;;;;;;;;;5069892;28;20380;-71
2021/09/13 03:28:44;;;;;;;6.20;2.88;;;;;;;;;;5069168;28;20074;-71
2021/09/13 03:31:10;;;;;;;7.43;2.95;;;;;;;;;;5060490;28;20480;-72
2021/09/13 03:33:35;;;;;;;9.75;3.22;;;;;;;;;;5055923;28;20461;-71
2021/09/13 03:36:01;;;;;;;7.90;3.10;;;;;;;;;;5076798;28;20430;-72
2021/09/13 03:38:27;;;;;;;5.32;3.00;;;;;;;;;;5059139;28;20036;-72
2021/09/13 03:40:53;;;;;;;4.68;2.65;;;;;;;;;;5050873;28;20024;-70
2021/09/13 03:43:18;;;;;;;7.28;2.90;;;;;;;;;;5050466;28;20021;-73
2021/09/13 03:45:44;;;;;;;7.40;3.03;;;;;;;;;;5060091;28;20028;-72
2021/09/13 03:48:10;;;;;;;4.95;2.33;;;;;;;;;;5051199;28;20067;-73
2021/09/13 03:50:35;;;;;;;2.97;2.00;;;;;;;;;;5052452;28;20032;-73
2021/09/13 03:53:01;;;;;;;2.85;1.98;;;;;;;;;;5038724;28;20071;-73
2021/09/13 03:55:27;;;;;;;4.60;1.77;;;;;;;;;;5068639;28;20089;-72
2021/09/13 03:57:52;;;;;;;3.83;1.90;;;;;;;;;;5090071;28;20047;-73
2021/09/13 04:00:19;;;;;;;3.25;1.65;;;;;;;;;;5066094;28;20034;-73
2021/09/13 04:02:47;;;;;;;2.97;1.50;;;;;;;;;;5070456;28;20036;-72
2021/09/13 04:05:17;;;;;;;2.28;1.40;;;;;;;;;;5077452;28;20097;-71
2021/09/13 04:13:05;;;;;;;2.42;1.33;;;;;;;;;;5060341;28;20074;-72
2021/09/13 04:15:31;;;;;;;1.95;1.08;;;;;;;;;;5073675;28;20100;-73
2021/09/13 04:17:56;;;;;;;1.75;1.20;;;;;;;;;;5064785;28;20095;-73
2021/09/13 04:20:22;;;;;;;2.10;1.20;;;;;;;;;;5070737;28;20080;-74
2021/09/13 04:22:47;;;;;;;2.25;1.10;;;;;;;;;;5067674;28;20024;-70
2021/09/13 04:25:13;;;;;;;3.22;1.40;;;;;;;;;;5081071;28;20025;-71
2021/09/13 04:27:38;;;;;;;3.75;1.30;;;;;;;;;;5070475;28;20036;-72
2021/09/13 04:30:04;;;;;;;4.97;1.45;;;;;;;;;;5070366;28;20016;-74
2021/09/13 04:32:30;;;;;;;1.90;1.40;;;;;;;;;;5071442;28;20021;-72
2021/09/13 04:34:56;;;;;;;3.00;1.48;;;;;;;;;;5073035;28;20013;-72
2021/09/13 04:37:22;;;;;;;3.58;1.40;;;;;;;;;;5056156;28;20035;-72
2021/09/13 04:39:47;;;;;;;5.63;1.60;;;;;;;;;;5070547;28;20023;-72
2021/09/13 04:42:12;;;;;;;2.22;1.30;;;;;;;;;;5085089;28;20032;-72
2021/09/13 04:44:38;;;;;;;3.03;1.70;;;;;;;;;;5080819;28;20021;-72
2021/09/13 04:47:04;;;;;;;7.70;1.60;;;;;;;;;;5061183;28;20036;-72
2021/09/13 04:49:29;;;;;;;3.95;1.35;;;;;;;;;;5052574;28;20028;-72
2021/09/13 04:51:56;;;;;;;2.50;1.45;;;;;;;;;;5068509;28;20376;-71
2021/09/13 04:54:21;;;;;;;3.88;1.83;;;;;;;;;;5073832;28;20055;-73
2021/09/13 04:56:47;;;;;;;3.25;1.60;;;;;;;;;;5056633;28;20067;-73
2021/09/13 04:59:13;;;;;;;3.38;1.50;;;;;;;;;;5068565;28;20131;-71
2021/09/13 05:01:38;;;;;;;2.60;1.33;;;;;;;;;;5076042;28;20032;-72
2021/09/13 05:04:06;;;;;;;6.22;1.50;;;;;;;;;;5075015;28;20028;-71
2021/09/13 05:06:32;;;;;;;2.67;1.33;;;;;;;;;;5067164;28;20044;-73
2021/09/13 05:08:57;;;;;;;2.50;1.13;;;;;;;;;;5078217;28;20067;-72
2021/09/13 05:11:23;;;;;;;2.05;1.13;;;;;;;;;;5065481;28;20037;-72
2021/09/13 05:13:48;;;;;;;2.78;1.23;;;;;;;;;;5061005;28;20022;-72
2021/09/13 05:16:14;;;;;;;1.55;0.90;;;;;;;;;;5064147;28;20079;-72
2021/09/13 05:18:39;;;;;;;4.95;1.10;;;;;;;;;;5064532;28;20431;-70
2021/09/13 05:21:05;;;;;;;1.67;1.00;;;;;;;;;;5069212;28;20027;-72
2021/09/13 05:23:31;;;;;;;2.72;1.02;;;;;;;;;;5071872;28;20030;-72
2021/09/13 05:25:56;;;;;;;2.58;1.00;;;;;;;;;;5068489;28;20054;-71
2021/09/13 05:28:22;;;;;;;2.10;1.20;;;;;;;;;;5064639;28;20035;-71
2021/09/13 05:30:49;;;;;;;1.70;1.20;;;;;;;;;;5076551;28;20032;-70
2021/09/13 05:33:15;;;;;;;1.67;0.80;;;;;;;;;;5082261;28;20021;-73
2021/09/13 05:35:40;;;;;;;1.42;0.80;;;;;;;;;;5089025;28;20032;-72
2021/09/13 05:38:06;;;;;;;2.35;0.70;;;;;;;;;;5076827;28;20047;-72
2021/09/13 05:40:32;;;;;;;4.47;1.10;;;;;;;;;;5060681;28;20507;-71
2021/09/13 05:42:59;;;;;;;0.93;0.68;;;;;;;;;;5044964;28;20075;-73
2021/09/13 05:45:25;;;;;;;1.92;0.80;;;;;;;;;;5068031;28;20020;-71
2021/09/13 05:47:50;;;;;;;3.80;1.50;;;;;;;;;;5070559;28;20388;-71
2021/09/13 05:50:15;;;;;;;1.58;0.80;;;;;;;;;;5059117;28;20036;-73
2021/09/13 05:52:41;;;;;;;2.08;0.60;;;;;;;;;;5073145;28;20602;-72
2021/09/13 05:55:07;;;;;;;1.30;0.40;;;;;;;;;;5084027;28;20107;-71
2021/09/13 05:57:32;;;;;;;1.48;0.45;;;;;;;;;;5062867;28;20359;-71
2021/09/13 05:59:58;;;;;;;3.63;0.70;;;;;;;;;;5079200;28;20045;-72
2021/09/13 06:02:23;;;;;;;1.05;0.60;;;;;;;;;;5060744;28;20469;-73
2021/09/13 06:04:49;;;;;;;3.30;0.80;;;;;;;;;;5064357;28;20042;-72
2021/09/13 06:07:15;;;;;;;2.58;0.60;;;;;;;;;;5070900;28;20039;-71
2021/09/13 06:09:40;;;;;;;2.05;0.50;;;;;;;;;;5058735;28;20032;-73
2021/09/13 06:12:06;;;;;;;1.70;0.60;;;;;;;;;;5072833;28;20109;-72
2021/09/13 06:14:32;;;;;;;1.88;0.50;;;;;;;;;;5059431;28;20098;-72
2021/09/13 06:16:57;;;;;;;2.70;0.75;;;;;;;;;;5056913;28;20108;-70
2021/09/13 06:19:23;;;;;;;2.30;0.77;;;;;;;;;;5053771;28;20396;-72
2021/09/13 06:21:50;;;;;;;2.60;0.80;;;;;;;;;;5067064;28;20502;-72
2021/09/13 06:24:16;;;;;;;1.00;0.50;;;;;;;;;;5084847;28;20476;-72
2021/09/13 06:26:42;;;;;;;2.80;0.60;;;;;;;;;;5053542;28;20036;-71
2021/09/13 06:29:07;;;;;;;2.55;0.57;;;;;;;;;;5070802;28;20481;-71
2021/09/13 06:31:33;;;;;;;0.77;0.60;;;;;;;;;;5070750;28;20028;-72
2021/09/13 06:33:58;;;;;;;2.22;0.60;;;;;;;;;;5069652;28;20031;-71
2021/09/13 06:36:26;;;;;;;0.95;0.60;;;;;;;;;;5072364;28;20025;-72
2021/09/13 06:38:52;;;;;;;1.63;0.57;;;;;;;;;;5074406;28;20107;-70
2021/09/13 06:41:17;;;;;;;0.95;0.50;;;;;;;;;;5073014;28;20036;-71
2021/09/13 06:43:46;;;;;;;0.93;0.57;;;;;;;;;;5080913;28;20020;-72
2021/09/13 06:46:14;;;;;;;1.38;0.70;;;;;;;;;;5073189;28;20024;-71
2021/09/13 06:48:42;;;;;;;2.03;0.70;;;;;;;;;;5073165;28;20395;-70
2021/09/13 06:51:08;;;;;;;2.50;1.00;;;;;;;;;;5073383;28;20024;-72
2021/09/13 06:53:34;;;;;;;4.28;0.93;;;;;;;;;;5076545;28;20013;-72
2021/09/13 06:56:00;;;;;;;3.15;1.10;;;;;;;;;;5053103;28;20530;-73
2021/09/13 06:58:25;;;;;;;2.97;1.13;;;;;;;;;;5072433;28;20039;-75
2021/09/13 07:00:54;;;;;;;1.48;0.70;;;;;;;;;;5061762;28;20028;-72
2021/09/13 07:03:19;;;;;;;3.05;0.93;;;;;;;;;;5077092;28;20025;-70
2021/09/13 07:05:46;;;;;;;4.45;0.75;;;;;;;;;;5069807;28;20078;-73
2021/09/13 07:08:12;;;;;;;1.80;0.80;;;;;;;;;;5058478;28;20108;-71
2021/09/13 07:10:37;;;;;;;4.15;0.90;;;;;;;;;;5072344;28;20147;-73
2021/09/13 07:13:03;;;;;;;3.95;0.90;;;;;;;;;;5088394;28;20031;-72
2021/09/13 07:15:29;;;;;;;2.15;0.80;;;;;;;;;;5074615;28;20066;-71
2021/09/13 07:17:54;;;;;;;4.15;1.00;;;;;;;;;;5067080;28;20040;-72
2021/09/13 07:20:20;;;;;;;2.00;1.45;;;;;;;;;;5071508;28;20028;-71
2021/09/13 07:22:46;;;;;;;2.08;1.00;;;;;;;;;;5063948;28;20089;-69
2021/09/13 07:25:12;;;;;;;2.67;1.10;;;;;;;;;;5071771;28;20021;-71
2021/09/13 07:27:39;;;;;;;2.35;0.90;;;;;;;;;;5072097;28;20525;-71
2021/09/13 07:30:06;;;;;;;3.80;1.05;;;;;;;;;;5071231;28;20024;-71
2021/09/13 07:32:32;;;;;;;2.13;1.17;;;;;;;;;;5082314;28;20493;-72
2021/09/13 07:34:58;;;;;;;4.03;1.30;;;;;;;;;;5053145;28;20123;-71
2021/09/13 07:37:23;;;;;;;7.57;1.60;;;;;;;;;;5067685;28;20028;-70
2021/09/13 07:39:49;;;;;;;4.75;1.48;;;;;;;;;;5062644;28;20029;-73
2021/09/13 07:42:14;;;;;;;3.75;1.60;;;;;;;;;;5061389;28;20016;-71
2021/09/13 07:44:41;;;;;;;3.33;1.95;;;;;;;;;;5068850;28;20107;-72
2021/09/13 07:47:07;;;;;;;5.32;1.50;;;;;;;;;;5063947;28;20472;-72
2021/09/13 07:49:32;;;;;;;4.35;1.60;;;;;;;;;;5068701;28;20024;-73
2021/09/13 07:51:58;;;;;;;4.72;1.60;;;;;;;;;;5064958;28;20040;-71
2021/09/13 07:54:23;;;;;;;3.85;1.65;;;;;;;;;;5088932;28;20333;-72
2021/09/13 07:56:49;;;;;;;2.75;1.70;;;;;;;;;;5075136;28;20054;-73
2021/09/13 07:59:15;;;;;;;4.75;2.25;;;;;;;;;;5072177;28;20049;-72
2021/09/13 08:01:41;;;;;;;6.03;1.88;;;;;;;;;;5064518;28;20087;-70
2021/09/13 08:04:06;;;;;;;5.47;1.67;;;;;;;;;;5052368;28;20020;-70
2021/09/13 08:06:33;;;;;;;3.90;1.45;;;;;;;;;;5080607;28;20071;-73
2021/09/13 08:08:59;;;;;;;3.13;1.77;;;;;;;;;;5077850;28;20027;-71
2021/09/13 08:11:26;;;;;;;4.55;1.70;;;;;;;;;;5077404;28;20028;-73
2021/09/13 08:13:51;;;;;;;4.47;1.60;;;;;;;;;;5070641;28;20024;-74
2021/09/13 08:16:18;;;;;;;3.28;1.60;;;;;;;;;;5076095;28;20024;-72
2021/09/13 08:18:44;;;;;;;2.00;1.50;;;;;;;;;;5068549;28;20043;-73
2021/09/13 08:21:10;;;;;;;3.92;1.50;;;;;;;;;;5077509;28;20028;-72
2021/09/13 08:23:36;;;;;;;6.05;1.38;;;;;;;;;;5080237;28;20387;-73
2021/09/13 08:26:07;;;;;;;2.78;1.95;;;;;;;;;;5076967;28;20028;-70
2021/09/13 08:28:33;;;;;;;3.78;2.03;;;;;;;;;;5077260;28;20093;-72
2021/09/13 08:30:59;;;;;;;3.90;1.52;;;;;;;;;;5077018;28;20056;-71
2021/09/13 08:33:24;;;;;;;5.25;1.55;;;;;;;;;;5077127;28;20032;-70
2021/09/13 08:35:55;;;;;;;3.13;1.40;;;;;;;;;;5077158;28;20138;-71
2021/09/13 08:38:22;;;;;;;3.03;1.30;;;;;;;;;;5081627;28;20541;-73
2021/09/13 08:40:48;;;;;;;5.38;1.30;;;;;;;;;;5077056;28;20047;-71
2021/09/13 08:43:14;;;;;;;2.08;1.20;;;;;;;;;;5072105;28;20315;-72
2021/09/13 08:45:47;;;;;;;1.38;1.10;;;;;;;;;;5071740;28;20020;-74
2021/09/13 08:53:19;;;;;;;6.47;1.52;;;;;;;;;;5069295;28;20043;-72
2021/09/13 08:55:45;;;;;;;4.47;1.45;;;;;;;;;;5072188;28;20025;-71
2021/09/13 08:58:16;;;;;;;3.42;1.30;;;;;;;;;;5073104;28;20036;-72
2021/09/13 09:00:42;;;;;;;2.00;1.08;;;;;;;;;;5082533;28;20040;-72
2021/09/13 09:03:09;;;;;;;3.60;1.10;;;;;;;;;;5076620;28;20024;-74
2021/09/13 09:05:42;;;;;;;1.75;1.10;;;;;;;;;;5076810;28;20054;-73
2021/09/13 09:08:12;;;;;;;1.38;1.02;;;;;;;;;;5079426;28;20040;-74
2021/09/13 09:10:38;;;;;;;4.65;1.42;;;;;;;;;;5074431;28;20468;-72
2021/09/13 09:13:16;;;;;;;3.50;1.13;;;;;;;;;;5075879;28;20035;-73
2021/09/13 09:15:58;;;;;;;2.58;0.90;;;;;;;;;;5072391;28;20075;-73
2021/09/13 09:18:40;;;;;;;2.73;1.30;;;;;;;;;;5078235;28;20035;-72
2021/09/13 09:21:08;;;;;;;2.28;0.90;;;;;;;;;;5074618;28;20028;-73
2021/09/13 09:24:13;;;;;;;2.70;1.13;;;;;;;;;;5077105;28;20020;-74
2021/09/13 09:26:38;;;;;;;1.98;1.00;;;;;;;;;;5077951;28;20074;-71
2021/09/13 09:29:04;;;;;;;3.10;0.93;;;;;;;;;;5070110;28;20467;-71
2021/09/13 09:31:39;;;;;;;1.83;0.85;;;;;;;;;;5070359;28;20020;-72
2021/09/13 09:34:16;;;;;;;2.30;0.90;;;;;;;;;;5073070;28;20016;-71
2021/09/13 09:37:00;;;;;;;2.85;0.90;;;;;;;;;;5073687;28;20460;-72
2021/09/13 09:39:39;;;;;;;4.25;1.05;;;;;;;;;;5066594;28;20032;-71
2021/09/13 09:42:09;;;;;;;3.67;0.90;;;;;;;;;;5072824;28;20025;-71
2021/09/13 09:44:36;;;;;;;2.58;0.90;;;;;;;;;;5073461;28;20044;-72
2021/09/13 09:47:13;;;;;;;3.78;1.00;;;;;;;;;;5073233;28;20016;-72
2021/09/13 09:50:00;;;;;;;2.00;0.95;;;;;;;;;;5072442;28;20107;-70
2021/09/13 09:52:46;;;;;;;1.58;0.85;;;;;;;;;;5073006;28;20036;-73
2021/09/13 09:55:19;;;;;;;1.30;0.90;;;;;;;;;;5072184;28;20115;-72
2021/09/13 09:58:09;;;;;;;2.40;0.82;;;;;;;;;;5077676;28;20350;-73
2021/09/13 10:00:37;;;;;;;2.35;0.80;;;;;;;;;;5063962;28;20053;-72
2021/09/13 10:03:03;;;;;;;3.10;0.95;;;;;;;;;;5076043;28;20073;-72
2021/09/13 10:05:30;;;;;;;3.53;0.80;;;;;;;;;;5083291;28;20020;-73
2021/09/13 10:07:56;;;;;;;3.90;1.02;;;;;;;;;;5072716;28;20036;-72
2021/09/13 10:10:27;;;;;;;1.15;0.73;;;;;;;;;;5076384;28;20078;-72
2021/09/13 10:12:53;;;;;;;2.00;1.10;;;;;;;;;;5073572;28;20024;-73
2021/09/13 10:15:18;;;;;;;2.88;1.10;;;;;;;;;;5072991;28;20046;-73
2021/09/13 10:17:44;;;;;;;1.38;0.80;;;;;;;;;;5079650;28;20086;-70
2021/09/13 10:20:11;;;;;;;1.55;1.10;;;;;;;;;;5074628;28;20032;-72
2021/09/13 10:22:42;;;;;;;3.85;1.25;;;;;;;;;;5078908;28;20067;-70
2021/09/13 10:25:09;;;;;;;2.60;1.00;;;;;;;;;;5074555;28;20025;-71
2021/09/13 10:27:40;;;;;;;3.15;0.90;;;;;;;;;;5075214;28;20052;-69
2021/09/13 10:30:10;;;;;;;1.77;0.90;;;;;;;;;;5081223;28;20039;-72
2021/09/13 10:32:36;;;;;;;3.58;1.20;;;;;;;;;;5067257;28;20040;-71
2021/09/13 10:35:02;;;;;;;3.58;0.93;;;;;;;;;;5072103;28;20016;-71
2021/09/13 10:37:42;;;;;;;3.05;1.00;;;;;;;;;;5076129;28;20092;-70
2021/09/13 10:40:09;;;;;;;3.08;1.00;;;;;;;;;;5078379;28;20027;-71
2021/09/13 10:42:46;;;;;;;4.55;1.10;;;;;;;;;;5066480;28;20025;-71
2021/09/13 10:45:14;;;;;;;2.30;1.00;;;;;;;;;;5071733;28;20020;-71
2021/09/13 10:47:43;;;;;;;4.25;1.15;;;;;;;;;;5074369;28;20032;-71
2021/09/13 10:50:15;;;;;;;2.83;1.38;;;;;;;;;;5073266;28;20718;-71
2021/09/13 10:52:41;;;;;;;2.45;0.90;;;;;;;;;;5072961;28;20024;-71
2021/09/13 10:55:09;;;;;;;2.78;1.15;;;;;;;;;;5075188;28;20024;-69
2021/09/13 10:57:55;;;;;;;2.20;1.13;;;;;;;;;;5078321;28;20159;-71
2021/09/13 11:00:39;;;;;;;2.75;1.10;;;;;;;;;;5071672;28;20036;-70
2021/09/13 11:03:32;;;;;;;;;;;;;;;;;;5066057;28;20028;-70
2021/09/13 11:06:12;;;;;;;2.97;1.05;;;;;;;;;;5060006;28;19913;-71
2021/09/13 11:08:47;;;;;;;2.70;0.90;;;;;;;;;;5076012;28;20062;-71
2021/09/13 11:11:20;;;;;;;2.88;1.00;;;;;;;;;;5070264;28;20426;-70
2021/09/13 11:13:47;;;;;;;2.85;0.90;;;;;;;;;;5052928;28;20013;-70
2021/09/13 11:16:17;;;;;;;1.33;0.90;;;;;;;;;;5070821;28;20028;-71
2021/09/13 11:18:44;;;;;;;2.92;1.20;;;;;;;;;;5072555;28;20111;-70
2021/09/13 11:21:20;;;;;;;3.28;1.40;;;;;;;;;;5073293;28;20094;-71
2021/09/13 11:24:04;;;;;;;3.90;0.88;;;;;;;;;;5081270;28;20468;-71
2021/09/13 11:26:32;;;;;;;1.95;1.05;;;;;;;;;;5075545;28;20028;-70
2021/09/13 11:28:59;;;;;;;2.28;1.10;;;;;;;;;;5055138;28;20032;-70
2021/09/13 11:31:38;;;;;;;2.85;1.00;;;;;;;;;;5067005;28;20060;-69
2021/09/13 11:34:19;;;;;;;2.72;1.00;;;;;;;;;;5072303;28;20472;-71
2021/09/13 11:37:23;;;;;;;2.90;0.75;;;;;;;;;;5072930;28;20093;-70
2021/09/13 11:39:53;;;;;;;3.05;1.13;;;;;;;;;;5073784;28;20107;-71
2021/09/13 11:42:25;;;;;;;2.53;0.80;;;;;;;;;;5071288;28;20468;-72
2021/09/13 11:44:57;;;;;;;5.07;1.00;;;;;;;;;;5060732;28;20021;-69
2021/09/13 11:47:27;;;;;;;2.42;1.02;;;;;;;;;;5084094;28;20095;-71
2021/09/13 11:49:55;;;;;;;1.98;1.10;;;;;;;;;;5070538;28;20371;-70
2021/09/13 11:52:29;;;;;;;1.27;0.88;;;;;;;;;;5075182;28;20032;-70
2021/09/13 11:55:12;;;;;;;2.80;0.90;;;;;;;;;;5081795;28;20023;-71
2021/09/13 11:57:48;;;;;;;3.05;1.10;;;;;;;;;;5068608;28;20377;-71
2021/09/13 12:00:17;;;;;;;4.50;1.52;;;;;;;;;;5053277;28;20115;-71
2021/09/13 12:02:49;;;;;;;1.95;1.00;;;;;;;;;;5057379;28;20507;-72
2021/09/13 12:05:17;;;;;;;2.10;0.95;;;;;;;;;;5075341;28;20036;-71
2021/09/13 12:07:47;;;;;;;1.50;0.73;;;;;;;;;;5066366;28;20062;-69
2021/09/13 12:10:31;;;;;;;2.50;1.02;;;;;;;;;;5071577;28;20027;-71
2021/09/13 12:13:01;;;;;;;2.67;0.93;;;;;;;;;;5083082;28;20039;-72
2021/09/13 12:15:32;;;;;;;2.78;1.10;;;;;;;;;;5084809;28;20028;-71
2021/09/13 12:18:02;;;;;;;4.03;1.15;;;;;;;;;;5081291;28;20024;-72
2021/09/13 12:20:39;;;;;;;3.13;1.00;;;;;;;;;;5075819;28;20081;-72
2021/09/13 12:23:18;;;;;;;5.53;1.05;;;;;;;;;;5071457;28;20033;-71
2021/09/13 12:25:47;;;;;;;2.53;1.10;;;;;;;;;;5071024;28;20029;-70
2021/09/13 12:28:20;;;;;;;2.90;1.00;;;;;;;;;;5071242;28;20413;-70
2021/09/13 12:30:51;;;;;;;3.83;1.00;;;;;;;;;;5076082;28;20036;-70
2021/09/13 12:33:18;;;;;;;3.88;0.90;;;;;;;;;;5073209;28;20352;-71
2021/09/13 12:35:47;;;;;;;1.92;0.90;;;;;;;;;;5070956;28;20022;-71
2021/09/13 12:38:13;;;;;;;1.80;1.02;;;;;;;;;;5070623;28;20074;-72
2021/09/13 12:40:59;;;;;;;2.55;1.00;;;;;;;;;;5057301;28;20052;-72
2021/09/13 12:43:33;;;;;;;1.92;0.82;;;;;;;;;;5073120;28;20400;-70
2021/09/13 12:46:06;;;;;;;2.95;0.95;;;;;;;;;;5075156;28;20467;-70
2021/09/13 12:48:35;;;;;;;2.17;0.90;;;;;;;;;;5078738;28;20025;-73
2021/09/13 12:51:00;;;;;;;1.83;0.93;;;;;;;;;;5070625;28;20025;-70
2021/09/13 12:53:28;;;;;;;2.60;0.90;;;;;;;;;;5074252;28;20036;-71
2021/09/13 12:55:55;;;;;;;2.85;0.95;;;;;;;;;;5075716;28;20020;-71
2021/09/13 12:58:25;;;;;;;2.00;0.88;;;;;;;;;;5073885;28;20111;-71
2021/09/13 13:00:51;;;;;;;1.50;0.88;;;;;;;;;;5077094;28;20025;-72
2021/09/13 13:03:17;;;;;;;2.53;1.00;;;;;;;;;;5077867;28;20388;-72
2021/09/13 13:05:48;;;;;;;1.92;0.90;;;;;;;;;;5071095;28;20028;-72
2021/09/13 13:08:17;;;;;;;2.55;0.73;;;;;;;;;;5040987;28;20025;-72
2021/09/13 13:10:43;;;;;;;2.95;1.05;;;;;;;;;;5066060;28;20036;-72
2021/09/13 13:13:09;;;;;;;2.80;1.00;;;;;;;;;;5072959;28;20030;-71
2021/09/13 13:15:35;;;;;;;1.60;0.75;;;;;;;;;;5072974;28;20020;-72
2021/09/13 13:18:00;;;;;;;1.95;0.90;;;;;;;;;;5071261;28;20066;-72
2021/09/13 13:20:29;;;;;;;1.05;0.77;;;;;;;;;;5065103;28;20036;-71
2021/09/13 13:22:56;;;;;;;1.55;0.70;;;;;;;;;;5073141;28;20047;-72
2021/09/13 13:25:23;;;;;;;2.22;0.95;;;;;;;;;;5073395;28;20028;-73
2021/09/13 13:27:49;;;;;;;2.65;0.80;;;;;;;;;;5057036;28;20268;-72
2021/09/13 13:30:17;;;;;;;2.60;0.80;;;;;;;;;;5085616;28;20043;-71
2021/09/13 13:32:46;;;;;;;2.95;1.02;;;;;;;;;;5072237;28;20012;-72
2021/09/13 13:35:12;;;;;;;3.08;0.75;;;;;;;;;;5073130;28;20024;-70
2021/09/13 13:37:38;;;;;;;1.92;0.80;;;;;;;;;;5076478;28;20020;-70
2021/09/13 13:40:05;;;;;;;3.88;0.90;;;;;;;;;;5073381;28;20032;-71
2021/09/13 13:42:31;;;;;;;2.03;0.90;;;;;;;;;;5078498;28;20032;-74
2021/09/13 13:44:56;;;;;;;2.70;0.90;;;;;;;;;;5075598;28;20082;-74
2021/09/13 13:47:27;;;;;;;1.65;0.70;;;;;;;;;;5093246;28;20545;-72
2021/09/13 13:49:53;;;;;;;1.67;0.77;;;;;;;;;;5074432;28;20025;-71
2021/09/13 13:52:19;;;;;;;1.60;0.80;;;;;;;;;;5077647;28;20082;-70
2021/09/13 13:54:46;;;;;;;4.00;1.17;;;;;;;;;;5081287;28;20020;-71
2021/09/13 13:57:11;;;;;;;1.52;0.80;;;;;;;;;;5082020;28;20043;-71
2021/09/13 13:59:37;;;;;;;1.27;0.70;;;;;;;;;;5089738;28;20040;-73
2021/09/13 14:02:02;;;;;;;2.28;0.90;;;;;;;;;;5077739;28;20028;-72
2021/09/13 14:04:28;;;;;;;2.10;0.90;;;;;;;;;;5072231;28;20450;-71
2021/09/13 14:06:53;;;;;;;2.35;0.85;;;;;;;;;;5084407;28;20031;-71
2021/09/13 14:09:20;;;;;;;2.90;0.88;;;;;;;;;;5059283;28;20104;-72
2021/09/13 14:11:46;;;;;;;1.70;0.70;;;;;;;;;;5077683;28;20028;-69
2021/09/13 14:14:12;;;;;;;1.58;0.93;;;;;;;;;;5056832;28;20031;-71
2021/09/13 14:16:38;;;;;;;3.28;1.00;;;;;;;;;;5073513;28;20472;-71
2021/09/13 14:19:04;;;;;;;3.92;1.02;;;;;;;;;;5073111;28;20035;-70
2021/09/13 14:21:34;;;;;;;2.70;0.63;;;;;;;;;;5072770;28;20019;-71
2021/09/13 14:23:59;;;;;;;1.58;0.70;;;;;;;;;;5078105;28;20025;-72
2021/09/13 14:26:24;;;;;;;1.80;0.75;;;;;;;;;;5068486;28;20112;-73
2021/09/13 14:28:50;;;;;;;3.33;1.00;;;;;;;;;;5072664;28;20025;-70
2021/09/13 14:31:15;;;;;;;2.28;0.90;;;;;;;;;;5072196;28;20032;-71
2021/09/13 14:33:40;;;;;;;1.83;0.90;;;;;;;;;;5072670;28;20488;-69
2021/09/13 14:36:06;;;;;;;2.05;0.80;;;;;;;;;;5072908;28;20031;-71
2021/09/13 14:38:31;;;;;;;2.20;0.93;;;;;;;;;;5072124;28;20021;-73
2021/09/13 14:40:57;;;;;;;3.38;0.93;;;;;;;;;;5054629;28;20028;-71
2021/09/13 14:43:22;;;;;;;2.28;0.90;;;;;;;;;;5071057;28;20029;-71
2021/09/13 14:45:48;;;;;;;2.88;0.80;;;;;;;;;;5068173;28;20031;-72
2021/09/13 14:48:13;;;;;;;1.90;0.93;;;;;;;;;;5069181;28;20028;-73
2021/09/13 14:50:39;;;;;;;1.92;0.80;;;;;;;;;;5054268;28;20119;-73
2021/09/13 14:53:05;;;;;;;1.50;0.85;;;;;;;;;;5076259;28;20465;-72
2021/09/13 14:55:30;;;;;;;1.42;0.88;;;;;;;;;;5072474;28;20437;-72
2021/09/13 14:57:56;;;;;;;1.23;0.68;;;;;;;;;;5071906;28;20151;-73